createdAt,value
2019-01-12T00:00:17.402Z,-1.26
2019-01-12T00:02:46.090Z,-1.35
2019-01-12T00:05:14.779Z,-1.03
2019-01-12T00:07:43.948Z,-1.17
2019-01-12T00:10:12.623Z,-1.19
2019-01-12T00:12:41.306Z,-1.15
2019-01-12T00:15:10.071Z,-1.27
2019-01-12T00:17:38.755Z,-1.33
2019-01-12T00:20:08.941Z,-1.33
2019-01-12T00:22:37.768Z,-1.59
2019-01-12T00:25:08.170Z,-1.59
2019-01-12T00:27:36.847Z,-1.74
2019-01-12T00:30:11.283Z,-1.84
2019-01-12T00:32:39.966Z,-1.93
2019-01-12T00:35:08.842Z,-1.90
2019-01-12T00:37:39.186Z,-1.92
2019-01-12T00:40:09.264Z,-2.08
2019-01-12T00:42:37.945Z,-2.11
2019-01-12T00:45:12.083Z,-2.04
2019-01-12T00:47:40.766Z,-2.24
2019-01-12T00:50:12.125Z,-2.21
2019-01-12T00:52:40.795Z,-2.21
2019-01-12T00:55:09.824Z,-2.33
2019-01-12T00:57:38.503Z,-2.33
2019-01-12T01:00:19.171Z,-2.30
2019-01-12T01:02:47.955Z,-2.21
2019-01-12T01:05:16.736Z,-2.28
2019-01-12T01:07:45.623Z,-2.41
2019-01-12T01:10:17.208Z,-2.41
2019-01-12T01:12:45.881Z,-2.23
2019-01-12T01:15:14.824Z,-2.14
2019-01-12T01:17:43.704Z,-2.03
2019-01-12T01:20:17.234Z,-2.14
2019-01-12T01:22:46.089Z,-2.14
2019-01-12T01:25:14.875Z,-2.03
2019-01-12T01:27:43.564Z,-2.00
2019-01-12T01:30:15.508Z,-2.01
2019-01-12T01:32:44.197Z,-2.14
2019-01-12T01:35:12.870Z,-2.21
2019-01-12T01:37:41.682Z,-2.21
2019-01-12T01:40:13.063Z,-2.38
2019-01-12T01:42:41.744Z,-2.45
2019-01-12T01:45:13.262Z,-2.42
2019-01-12T01:47:41.950Z,-2.38
2019-01-12T01:50:12.735Z,-2.34
2019-01-12T01:52:41.564Z,-2.40
2019-01-12T01:55:10.413Z,-2.46
2019-01-12T01:57:39.103Z,-2.53
2019-01-12T02:00:14.054Z,-2.41
2019-01-12T02:02:42.736Z,-2.50
2019-01-12T02:05:11.417Z,-2.50
2019-01-12T02:07:40.169Z,-2.46
2019-01-12T02:10:11.764Z,-2.41
2019-01-12T02:12:40.540Z,-2.51
2019-01-12T02:15:12.065Z,-2.51
2019-01-12T02:17:40.748Z,-2.38
2019-01-12T02:20:10.197Z,-2.40
2019-01-12T02:22:39.191Z,-2.40
2019-01-12T02:25:10.072Z,-2.49
2019-01-12T02:27:38.750Z,-2.38
2019-01-12T02:30:10.382Z,-2.20
2019-01-12T02:32:39.065Z,-2.29
2019-01-12T02:35:07.748Z,-2.41
2019-01-12T02:37:36.671Z,-2.46
2019-01-12T02:40:07.956Z,-2.43
2019-01-12T02:42:36.634Z,-2.45
2019-01-12T02:45:08.316Z,-2.52
2019-01-12T02:47:37.002Z,-2.57
2019-01-12T02:50:08.492Z,-2.57
2019-01-12T02:52:37.233Z,-2.69
2019-01-12T02:55:08.941Z,-2.60
2019-01-12T02:57:37.320Z,-2.48
2019-01-12T03:00:14.830Z,-2.64
2019-01-12T03:02:43.557Z,-2.64
2019-01-12T03:05:12.391Z,-2.81
2019-01-12T03:07:41.604Z,-3.06
2019-01-12T03:10:12.787Z,-3.23
2019-01-12T03:12:41.476Z,-3.22
2019-01-12T03:15:12.876Z,-3.20
2019-01-12T03:17:41.572Z,-3.37
2019-01-12T03:20:13.360Z,-3.37
2019-01-12T03:22:42.297Z,-3.53
2019-01-12T03:25:17.556Z,-3.53
2019-01-12T03:27:41.667Z,-3.59
2019-01-12T03:30:15.836Z,-3.59
2019-01-12T03:32:44.520Z,-3.61
2019-01-12T03:35:13.608Z,-3.64
2019-01-12T03:37:42.365Z,-3.64
2019-01-12T03:40:17.923Z,-3.63
2019-01-12T03:42:46.594Z,-3.50
2019-01-12T03:45:17.442Z,-3.67
2019-01-12T03:47:46.115Z,-3.76
2019-01-12T03:50:16.303Z,-3.84
2019-01-12T03:52:45.138Z,-3.79
2019-01-12T03:55:13.927Z,-3.94
2019-01-12T03:57:42.610Z,-4.05
2019-01-12T04:00:14.500Z,-4.00
2019-01-12T04:02:43.174Z,-4.00
2019-01-12T04:05:11.855Z,-3.92
2019-01-12T04:07:40.586Z,-3.95
2019-01-12T04:10:11.777Z,-4.02
2019-01-12T04:12:40.458Z,-4.04
2019-01-12T04:15:11.714Z,-4.05
2019-01-12T04:17:40.393Z,-3.83
2019-01-12T04:20:12.015Z,-4.00
2019-01-12T04:22:40.749Z,-4.11
2019-01-12T04:25:09.633Z,-4.23
2019-01-12T04:27:38.308Z,-4.27
2019-01-12T04:30:10.625Z,-4.22
2019-01-12T04:32:39.314Z,-4.23
2019-01-12T04:35:08.392Z,-4.37
2019-01-12T04:37:37.214Z,-4.44
2019-01-12T04:40:08.809Z,-4.39
2019-01-12T04:42:37.490Z,-4.35
2019-01-12T04:45:08.739Z,-4.27
2019-01-12T04:47:37.423Z,-4.33
2019-01-12T04:50:11.969Z,-4.32
2019-01-12T04:52:40.726Z,-4.24
2019-01-12T04:55:09.514Z,-4.28
2019-01-12T04:57:38.194Z,-4.32
2019-01-12T05:00:09.947Z,-4.38
2019-01-12T05:02:38.637Z,-4.41
2019-01-12T05:05:07.414Z,-4.43
2019-01-12T05:07:36.181Z,-4.52
2019-01-12T05:10:07.649Z,-4.37
2019-01-12T05:12:36.329Z,-4.24
2019-01-12T05:15:07.775Z,-4.00
2019-01-12T05:17:36.467Z,-3.97
2019-01-12T05:20:08.050Z,-3.94
2019-01-12T05:22:36.819Z,-3.93
2019-01-12T05:25:06.498Z,-3.93
2019-01-12T05:27:35.175Z,-3.93
2019-01-12T05:30:07.077Z,-3.99
2019-01-12T05:32:35.754Z,-4.09
2019-01-12T05:35:05.151Z,-4.08
2019-01-12T05:37:34.010Z,-4.07
2019-01-12T05:40:02.692Z,-4.07
2019-01-12T05:42:31.375Z,-4.10
2019-01-12T05:45:00.194Z,-4.21
2019-01-12T05:47:28.874Z,-4.31
2019-01-12T05:49:57.554Z,-4.24
2019-01-12T05:52:26.299Z,-4.33
2019-01-12T05:54:54.991Z,-4.41
2019-01-12T05:57:23.687Z,-4.41
2019-01-12T05:59:52.527Z,-4.57
2019-01-12T06:02:21.217Z,-4.57
2019-01-12T06:04:49.908Z,-4.70
2019-01-12T06:07:18.857Z,-4.88
2019-01-12T06:09:47.532Z,-4.88
2019-01-12T06:12:16.224Z,-4.95
2019-01-12T06:14:44.942Z,-4.64
2019-01-12T06:17:13.630Z,-4.49
2019-01-12T06:19:42.309Z,-4.48
2019-01-12T06:22:11.472Z,-4.48
2019-01-12T06:24:40.160Z,-4.59
2019-01-12T06:27:08.922Z,-4.62
2019-01-12T06:29:38.022Z,-4.62
2019-01-12T06:32:06.710Z,-4.29
2019-01-12T06:34:35.397Z,-4.29
2019-01-12T06:37:04.579Z,-4.25
2019-01-12T06:39:33.264Z,-4.19
2019-01-12T06:42:01.881Z,-3.90
2019-01-12T06:44:31.043Z,-3.63
2019-01-12T06:46:59.719Z,-3.63
2019-01-12T06:49:28.404Z,-3.40
2019-01-12T06:51:57.250Z,-3.27
2019-01-12T06:54:25.931Z,-3.26
2019-01-12T06:56:56.108Z,-3.42
2019-01-12T06:59:24.884Z,-3.12
2019-01-12T07:01:53.588Z,-3.12
2019-01-12T07:04:22.266Z,-3.16
2019-01-12T07:06:51.008Z,-2.99
2019-01-12T07:09:19.697Z,-2.76
2019-01-12T07:11:48.380Z,-2.64
2019-01-12T07:14:17.533Z,-2.21
2019-01-12T07:16:46.223Z,-1.99
2019-01-12T07:19:14.910Z,-2.02
2019-01-12T07:21:43.763Z,-1.82
2019-01-12T07:24:12.456Z,-2.00
2019-01-12T07:26:41.139Z,-1.43
2019-01-12T07:29:10.259Z,-1.20
2019-01-12T07:31:38.941Z,-1.17
2019-01-12T07:34:07.630Z,-1.09
2019-01-12T07:36:36.461Z,-1.20
2019-01-12T07:39:07.332Z,-1.31
2019-01-12T07:41:36.002Z,-1.32
2019-01-12T07:44:06.247Z,-1.05
2019-01-12T07:46:34.918Z,-0.88
2019-01-12T07:49:03.615Z,-0.74
2019-01-12T07:51:32.440Z,-0.86
2019-01-12T07:54:01.123Z,-0.73
2019-01-12T07:56:29.802Z,-0.94
2019-01-12T07:58:59.304Z,-1.10
2019-01-12T08:01:27.993Z,-0.83
2019-01-12T08:03:56.677Z,-0.73
2019-01-12T08:06:25.503Z,-0.50
2019-01-12T08:08:54.190Z,-0.60
2019-01-12T08:11:22.876Z,-0.51
2019-01-12T08:13:51.636Z,-0.24
2019-01-12T08:16:20.321Z,-0.01
2019-01-12T08:18:49.015Z,-0.01
2019-01-12T08:21:17.727Z,0.08
2019-01-12T08:23:46.409Z,0.17
2019-01-12T08:26:15.013Z,0.17
2019-01-12T08:28:43.728Z,0.42
2019-01-12T08:31:12.451Z,0.42
2019-01-12T08:33:41.121Z,0.62
2019-01-12T08:36:09.933Z,0.80
2019-01-12T08:38:38.611Z,1.00
2019-01-12T08:41:07.294Z,0.59
2019-01-12T08:43:36.039Z,0.90
2019-01-12T08:46:04.943Z,1.29
2019-01-12T08:48:33.604Z,1.58
2019-01-12T08:51:02.323Z,1.59
2019-01-12T08:53:31.003Z,1.46
2019-01-12T08:55:59.684Z,1.39
2019-01-12T08:58:28.436Z,1.43
2019-01-12T09:00:57.106Z,1.67
2019-01-12T09:03:25.911Z,2.00
2019-01-12T09:05:54.635Z,1.93
2019-01-12T09:08:23.325Z,1.71
2019-01-12T09:10:52.007Z,1.67
2019-01-12T09:13:20.834Z,2.10
2019-01-12T09:15:49.505Z,2.12
2019-01-12T09:18:18.199Z,2.45
2019-01-12T09:20:47.224Z,2.29
2019-01-12T09:23:15.903Z,2.47
2019-01-12T09:25:44.579Z,2.70
2019-01-12T09:28:13.315Z,2.86
2019-01-12T09:30:48.316Z,3.32
2019-01-12T09:33:12.401Z,3.61
2019-01-12T09:35:41.413Z,3.71
2019-01-12T09:38:10.115Z,3.65
2019-01-12T09:40:38.799Z,3.77
2019-01-12T09:43:07.531Z,3.80
2019-01-12T09:45:36.206Z,3.57
2019-01-12T10:23:05.624Z,4.27
2019-01-12T10:25:34.304Z,4.36
2019-01-12T10:28:10.857Z,4.59
2019-01-12T10:30:39.614Z,4.66
2019-01-12T10:33:08.350Z,4.73
2019-01-12T10:35:37.062Z,5.10
2019-01-12T10:38:05.839Z,5.07
2019-01-12T10:40:34.562Z,4.99
2019-01-12T10:43:03.394Z,5.14
2019-01-12T10:45:32.071Z,5.16
2019-01-12T10:48:00.767Z,5.09
2019-01-12T10:50:31.577Z,4.76
2019-01-12T10:53:00.264Z,4.89
2019-01-12T10:55:28.938Z,4.79
2019-01-12T10:57:57.972Z,5.07
2019-01-12T11:00:32.082Z,5.07
2019-01-12T11:03:00.732Z,4.89
2019-01-12T11:05:29.488Z,5.19
2019-01-12T11:07:58.164Z,5.22
2019-01-12T11:10:26.846Z,5.06
2019-01-12T11:12:57.072Z,5.35
2019-01-12T11:15:25.762Z,5.40
2019-01-12T11:17:54.453Z,5.35
2019-01-12T11:20:23.167Z,5.41
2019-01-12T11:22:52.043Z,5.49
2019-01-12T11:25:20.721Z,5.77
2019-01-12T11:27:49.563Z,5.64
2019-01-12T11:30:20.457Z,5.41
2019-01-12T11:32:49.347Z,5.39
2019-01-12T11:35:18.116Z,5.52
2019-01-12T11:37:46.805Z,5.52
2019-01-12T11:40:20.672Z,5.41
2019-01-12T11:42:50.771Z,5.62
2019-01-12T11:45:20.055Z,5.53
2019-01-12T11:47:49.333Z,5.63
2019-01-12T11:50:18.768Z,5.36
2019-01-12T11:52:47.546Z,5.54
2019-01-12T11:55:20.383Z,5.34
2019-01-12T11:57:49.228Z,5.37
2019-01-12T12:00:25.644Z,5.23
2019-01-12T12:02:54.594Z,5.35
2019-01-12T12:05:23.362Z,5.45
2019-01-12T12:07:52.600Z,5.42
2019-01-12T12:10:22.455Z,5.34
2019-01-12T12:12:51.153Z,5.38
2019-01-12T12:15:21.438Z,5.34
2019-01-12T12:17:52.062Z,5.26
2019-01-12T12:20:25.326Z,5.25
2019-01-12T12:22:54.184Z,5.26
2019-01-12T12:25:22.900Z,5.28
2019-01-12T12:27:51.578Z,5.23
2019-01-12T12:30:25.659Z,5.11
2019-01-12T12:32:54.717Z,5.37
2019-01-12T12:35:24.973Z,5.64
2019-01-12T12:37:54.470Z,5.61
2019-01-12T12:40:24.964Z,5.42
2019-01-12T12:42:55.250Z,5.54
2019-01-12T12:45:27.065Z,5.43
2019-01-12T12:47:56.558Z,5.33
2019-01-12T12:50:25.327Z,5.40
2019-01-12T12:52:54.027Z,5.43
2019-01-12T12:55:22.884Z,5.33
2019-01-12T12:57:51.584Z,5.27
2019-01-12T13:00:22.904Z,5.34
2019-01-12T13:02:51.693Z,5.31
2019-01-12T13:05:20.467Z,5.35
2019-01-12T13:07:49.281Z,5.24
2019-01-12T13:10:20.666Z,5.17
2019-01-12T13:12:49.353Z,5.40
2019-01-12T13:15:18.138Z,5.36
2019-01-12T13:17:46.839Z,5.17
2019-01-12T13:20:17.819Z,5.04
2019-01-12T13:22:46.797Z,5.04
2019-01-12T13:25:16.132Z,4.94
2019-01-12T13:27:44.825Z,4.95
2019-01-12T13:30:24.818Z,4.98
2019-01-12T13:32:53.599Z,4.91
2019-01-12T13:35:22.278Z,4.95
2019-01-12T13:37:51.998Z,4.90
2019-01-12T13:40:25.386Z,4.89
2019-01-12T13:42:54.058Z,4.83
2019-01-12T13:45:23.207Z,4.88
2019-01-12T13:47:51.882Z,4.96
2019-01-12T13:50:23.055Z,4.91
2019-01-12T13:52:52.185Z,4.81
2019-01-12T13:55:20.957Z,4.75
2019-01-12T13:57:50.135Z,4.67
2019-01-12T14:00:30.300Z,4.82
2019-01-12T14:03:01.573Z,4.78
2019-01-12T14:05:30.440Z,4.47
2019-01-12T14:07:59.572Z,4.37
2019-01-12T14:10:28.294Z,4.25
2019-01-12T14:12:56.970Z,3.95
2019-01-12T14:15:26.319Z,4.01
2019-01-12T14:17:55.005Z,3.95
2019-01-12T14:20:28.990Z,3.79
2019-01-12T14:22:57.723Z,3.74
2019-01-12T14:25:27.187Z,3.36
2019-01-12T14:27:56.061Z,3.21
2019-01-12T14:30:24.916Z,3.23
2019-01-12T14:32:53.595Z,2.96
2019-01-12T14:35:22.273Z,2.76
2019-01-12T14:37:51.301Z,2.58
2019-01-12T14:40:20.885Z,2.36
2019-01-12T14:42:49.584Z,2.33
2019-01-12T14:45:26.654Z,2.23
2019-01-12T14:47:55.538Z,2.13
2019-01-12T14:50:24.223Z,1.88
2019-01-12T14:52:52.937Z,1.78
2019-01-12T14:55:22.913Z,1.73
2019-01-12T14:57:51.707Z,1.66
2019-01-12T15:00:22.558Z,1.48
2019-01-12T15:02:51.220Z,1.52
2019-01-12T15:05:21.703Z,1.41
2019-01-12T15:07:50.536Z,1.44
2019-01-12T15:10:20.772Z,1.42
2019-01-12T15:12:50.176Z,1.27
2019-01-12T15:15:20.127Z,1.21
2019-01-12T15:17:49.001Z,1.25
2019-01-12T15:20:22.505Z,1.11
2019-01-12T15:22:51.679Z,1.01
2019-01-12T15:25:20.776Z,1.03
2019-01-12T15:27:49.560Z,1.00
2019-01-12T15:30:20.796Z,0.93
2019-01-12T15:32:49.462Z,0.76
2019-01-12T15:35:18.855Z,0.88
2019-01-12T15:37:47.956Z,0.62
2019-01-12T15:40:19.077Z,0.60
2019-01-12T15:42:47.751Z,0.48
2019-01-12T15:45:19.140Z,0.49
2019-01-12T15:47:47.825Z,0.56
2019-01-12T15:50:19.082Z,0.58
2019-01-12T15:52:47.824Z,0.49
2019-01-12T15:55:16.574Z,0.49
2019-01-12T15:57:56.878Z,0.41
2019-01-12T16:00:27.831Z,0.41
2019-01-12T16:02:56.527Z,0.38
2019-01-12T16:05:25.370Z,0.38
2019-01-12T16:07:54.058Z,0.36
2019-01-12T16:10:22.667Z,0.24
2019-01-12T16:12:51.407Z,0.28
2019-01-12T16:15:24.944Z,0.22
2019-01-12T16:17:53.831Z,0.22
2019-01-12T16:20:25.399Z,0.23
2019-01-12T16:22:54.074Z,0.20
2019-01-12T16:25:22.747Z,0.16
2019-01-12T16:27:51.655Z,0.15
2019-01-12T16:30:21.331Z,0.09
2019-01-12T16:32:50.110Z,-0.02
2019-01-12T16:35:19.235Z,0.03
2019-01-12T16:37:47.933Z,0.05
2019-01-12T16:40:21.966Z,0.10
2019-01-12T16:42:50.710Z,0.02
2019-01-12T16:45:19.689Z,-0.07
2019-01-12T16:47:48.483Z,-0.14
2019-01-12T16:50:17.840Z,-0.21
2019-01-12T16:52:46.533Z,-0.19
2019-01-12T16:55:16.817Z,-0.21
2019-01-12T16:57:45.943Z,-0.25
2019-01-12T17:00:20.082Z,-0.23
2019-01-12T17:02:48.770Z,-0.29
2019-01-12T17:05:17.638Z,-0.39
2019-01-12T17:07:47.482Z,-0.34
2019-01-12T17:10:21.744Z,-0.37
2019-01-12T17:12:50.577Z,-0.38
2019-01-12T17:15:21.260Z,-0.46
2019-01-12T17:17:49.940Z,-0.43
2019-01-12T17:20:24.315Z,-0.42
2019-01-12T17:22:54.991Z,-0.33
2019-01-12T17:25:23.676Z,-0.38
2019-01-12T17:27:52.507Z,-0.42
2019-01-12T17:30:23.869Z,-0.41
2019-01-12T17:32:52.553Z,-0.37
2019-01-12T17:35:21.370Z,-0.42
2019-01-12T17:37:50.043Z,-0.41
2019-01-12T17:40:18.728Z,-0.40
2019-01-12T17:42:47.446Z,-0.46
2019-01-12T17:45:18.230Z,-0.54
2019-01-12T17:47:46.905Z,-0.60
2019-01-12T17:50:17.922Z,-0.71
2019-01-12T17:52:46.698Z,-0.63
2019-01-12T17:55:17.945Z,-0.72
2019-01-12T17:57:46.761Z,-0.72
2019-01-12T18:00:34.488Z,-0.81
2019-01-12T18:03:03.235Z,-0.81
2019-01-12T18:05:31.919Z,-0.81
2019-01-12T18:08:00.616Z,-0.81
2019-01-12T18:10:29.334Z,-0.77
2019-01-12T18:12:59.615Z,-0.76
2019-01-12T18:15:28.292Z,-0.83
2019-01-12T18:17:57.019Z,-0.86
2019-01-12T18:20:25.700Z,-0.87
2019-01-12T18:22:54.386Z,-0.93
2019-01-12T18:25:23.195Z,-0.93
2019-01-12T18:27:51.887Z,-0.93
2019-01-12T18:30:22.837Z,-1.03
2019-01-12T18:32:51.587Z,-1.07
2019-01-12T18:35:20.367Z,-1.07
2019-01-12T18:37:49.050Z,-1.09
2019-01-12T18:40:19.389Z,-1.11
2019-01-12T18:42:48.068Z,-1.11
2019-01-12T18:45:18.745Z,-1.06
2019-01-12T18:47:47.503Z,-1.15
2019-01-12T18:50:19.024Z,-1.15
2019-01-12T18:52:47.922Z,-1.15
2019-01-12T18:55:17.053Z,-1.20
2019-01-12T18:57:45.749Z,-1.26
2019-01-12T19:00:23.470Z,-1.18
2019-01-12T19:02:52.164Z,-1.25
2019-01-12T19:05:20.837Z,-1.33
2019-01-12T19:07:49.654Z,-1.23
2019-01-12T19:10:18.345Z,-1.21
2019-01-12T19:12:47.028Z,-1.30
2019-01-12T19:15:27.163Z,-1.27
2019-01-12T19:17:55.950Z,-1.29
2019-01-12T19:20:24.740Z,-1.36
2019-01-12T19:22:53.959Z,-1.40
2019-01-12T19:25:22.652Z,-1.41
2019-01-12T19:27:51.321Z,-1.54
2019-01-12T19:30:22.195Z,-1.56
2019-01-12T19:32:50.983Z,-1.50
2019-01-12T19:35:19.659Z,-1.50
2019-01-12T19:37:48.718Z,-1.47
2019-01-12T19:40:22.143Z,-1.47
2019-01-12T19:42:50.825Z,-1.52
2019-01-12T19:45:19.603Z,-1.55
2019-01-12T19:47:48.210Z,-1.49
2019-01-12T19:50:19.197Z,-1.49
2019-01-12T19:52:48.074Z,-1.52
2019-01-12T19:55:16.936Z,-1.54
2019-01-12T19:57:45.644Z,-1.52
2019-01-12T20:00:22.930Z,-1.54
2019-01-12T20:02:51.622Z,-1.66
2019-01-12T20:05:20.305Z,-1.67
2019-01-12T20:07:50.419Z,-1.78
2019-01-12T20:10:19.903Z,-1.89
2019-01-12T20:12:48.591Z,-1.76
2019-01-12T20:15:20.068Z,-1.87
2019-01-12T20:17:48.729Z,-1.95
2019-01-12T20:20:17.723Z,-2.03
2019-01-12T20:22:46.533Z,-2.03
2019-01-12T20:25:20.635Z,-1.97
2019-01-12T20:27:49.315Z,-2.08
2019-01-12T20:30:46.907Z,-2.08
2019-01-12T20:33:27.300Z,-2.21
2019-01-12T20:36:29.168Z,-2.21
2019-01-12T20:39:18.664Z,-2.21
2019-01-12T20:42:02.215Z,-2.10
2019-01-12T20:44:50.003Z,-2.16
2019-01-12T20:47:22.043Z,-2.19
2019-01-12T20:49:53.640Z,-2.32
2019-01-12T20:52:25.348Z,-2.46
2019-01-12T20:55:15.049Z,-2.39
2019-01-12T20:57:52.806Z,-2.39
2019-01-12T21:00:56.343Z,-2.36
2019-01-12T21:03:43.558Z,-2.48
2019-01-12T21:06:15.155Z,-2.59
2019-01-12T21:08:52.783Z,-2.55
2019-01-12T21:11:33.135Z,-2.79
2019-01-12T21:14:04.912Z,-2.77
2019-01-12T21:16:34.686Z,-2.89
2019-01-12T21:19:03.375Z,-3.02
2019-01-12T21:21:32.217Z,-2.99
2019-01-12T21:24:00.895Z,-2.99
2019-01-12T21:26:29.757Z,-3.17
2019-01-12T21:28:58.468Z,-3.35
2019-01-12T21:31:27.244Z,-3.35
2019-01-12T21:33:55.929Z,-3.37
2019-01-12T21:36:25.036Z,-3.32
2019-01-12T21:38:53.693Z,-3.43
2019-01-12T21:41:22.977Z,-3.69
2019-01-12T21:43:51.823Z,-3.95
2019-01-12T21:46:20.593Z,-4.11
2019-01-12T21:48:50.533Z,-4.13
2019-01-12T21:51:19.503Z,-4.17
2019-01-12T21:53:48.193Z,-4.20
2019-01-12T21:56:16.891Z,-4.33
2019-01-12T21:58:45.729Z,-4.42
2019-01-12T22:01:14.415Z,-4.54
2019-01-12T22:03:43.092Z,-4.51
2019-01-12T22:06:12.211Z,-4.53
2019-01-12T22:08:40.900Z,-4.54
2019-01-12T22:11:09.589Z,-4.53
2019-01-12T22:13:38.364Z,-4.52
2019-01-12T22:16:07.049Z,-4.42
2019-01-12T22:18:35.731Z,-4.45
2019-01-12T22:21:04.549Z,-4.48
2019-01-12T22:23:33.250Z,-4.43
2019-01-12T22:26:01.942Z,-4.48
2019-01-12T22:28:30.753Z,-4.58
2019-01-12T22:30:59.434Z,-4.67
2019-01-12T22:33:28.127Z,-4.66
2019-01-12T22:35:56.903Z,-4.66
2019-01-12T22:38:25.599Z,-4.85
2019-01-12T22:40:54.277Z,-4.97
2019-01-12T22:43:24.721Z,-5.04
2019-01-12T22:45:53.537Z,-5.18
2019-01-12T22:48:22.150Z,-5.27
2019-01-12T22:50:50.858Z,-5.24
2019-01-12T22:53:19.547Z,-5.27
2019-01-12T22:55:48.234Z,-5.32
2019-01-12T22:58:16.986Z,-5.40
2019-01-12T23:00:52.014Z,-5.34
2019-01-12T23:03:20.790Z,-5.42
2019-01-12T23:05:49.504Z,-5.46
2019-01-12T23:08:18.186Z,-5.52
2019-01-12T23:10:46.866Z,-5.50
2019-01-12T23:13:15.575Z,-5.13
2019-01-12T23:15:44.259Z,-5.19
2019-01-12T23:18:12.943Z,-5.47
2019-01-12T23:20:42.377Z,-5.60
2019-01-12T23:23:11.057Z,-5.60
2019-01-12T23:25:39.744Z,-5.57
2019-01-12T23:28:08.509Z,-5.65
2019-01-12T23:30:37.197Z,-5.80
2019-01-12T23:33:05.881Z,-5.80
2019-01-12T23:35:35.041Z,-5.90
2019-01-12T23:38:04.372Z,-5.90
2019-01-12T23:40:33.058Z,-5.81
2019-01-12T23:43:01.985Z,-5.85
2019-01-12T23:45:30.669Z,-5.85
2019-01-12T23:47:59.342Z,-5.93
2019-01-12T23:50:28.030Z,-5.85
2019-01-12T23:52:56.710Z,-5.81
2019-01-12T23:55:25.396Z,-5.95
2019-01-12T23:57:54.131Z,-5.95
